sensor_id;sensor_type;location;lat;lon;timestamp;P1;durP1;ratioP1;P2;durP2;ratioP2
4808;SDS011;2418;49.930;8.606;2023-05-07T00:00:37;2.08;;;1.98;;
4808;SDS011;2418;49.930;8.606;2023-05-07T00:03:03;3.10;;;2.10;;
4808;SDS011;2418;49.930;8.606;2023-05-07T00:05:29;2.10;;;2.00;;
4808;SDS011;2418;49.930;8.606;2023-05-07T00:07:55;2.15;;;2.05;;
4808;SDS011;2418;49.930;8.606;2023-05-07T00:10:21;4.20;;;2.00;;
4808;SDS011;2418;49.930;8.606;2023-05-07T00:12:47;2.30;;;2.10;;
4808;SDS011;2418;49.930;8.606;2023-05-07T00:15:13;4.78;;;2.45;;
4808;SDS011;2418;49.930;8.606;2023-05-07T00:17:39;2.70;;;2.60;;
4808;SDS011;2418;49.930;8.606;2023-05-07T00:20:06;3.10;;;2.90;;
4808;SDS011;2418;49.930;8.606;2023-05-07T00:22:32;3.50;;;2.40;;
4808;SDS011;2418;49.930;8.606;2023-05-07T00:24:58;2.53;;;2.33;;
4808;SDS011;2418;49.930;8.606;2023-05-07T00:27:25;3.40;;;2.40;;
4808;SDS011;2418;49.930;8.606;2023-05-07T00:29:51;2.72;;;2.40;;
4808;SDS011;2418;49.930;8.606;2023-05-07T00:32:17;6.10;;;2.38;;
4808;SDS011;2418;49.930;8.606;2023-05-07T00:34:43;2.37;;;2.27;;
4808;SDS011;2418;49.930;8.606;2023-05-07T00:37:09;2.78;;;2.67;;
4808;SDS011;2418;49.930;8.606;2023-05-07T00:39:35;4.90;;;3.08;;
4808;SDS011;2418;49.930;8.606;2023-05-07T00:42:01;3.10;;;2.30;;
4808;SDS011;2418;49.930;8.606;2023-05-07T00:44:27;3.13;;;2.70;;
4808;SDS011;2418;49.930;8.606;2023-05-07T00:46:54;2.70;;;2.50;;
4808;SDS011;2418;49.930;8.606;2023-05-07T00:49:21;3.55;;;2.50;;
4808;SDS011;2418;49.930;8.606;2023-05-07T00:51:47;3.67;;;2.70;;
4808;SDS011;2418;49.930;8.606;2023-05-07T00:54:13;3.15;;;2.40;;
4808;SDS011;2418;49.930;8.606;2023-05-07T00:56:39;3.10;;;2.50;;
4808;SDS011;2418;49.930;8.606;2023-05-07T00:59:05;4.25;;;3.00;;
4808;SDS011;2418;49.930;8.606;2023-05-07T01:01:31;2.90;;;2.80;;
4808;SDS011;2418;49.930;8.606;2023-05-07T01:03:57;11.00;;;2.90;;
4808;SDS011;2418;49.930;8.606;2023-05-07T01:06:24;2.80;;;2.60;;
4808;SDS011;2418;49.930;8.606;2023-05-07T01:08:51;4.40;;;2.50;;
4808;SDS011;2418;49.930;8.606;2023-05-07T01:11:18;2.90;;;2.80;;
4808;SDS011;2418;49.930;8.606;2023-05-07T01:13:45;3.05;;;2.95;;
4808;SDS011;2418;49.930;8.606;2023-05-07T01:16:12;3.72;;;3.00;;
4808;SDS011;2418;49.930;8.606;2023-05-07T01:18:38;4.40;;;2.55;;
4808;SDS011;2418;49.930;8.606;2023-05-07T01:21:04;3.10;;;2.50;;
4808;SDS011;2418;49.930;8.606;2023-05-07T01:23:31;4.50;;;2.90;;
4808;SDS011;2418;49.930;8.606;2023-05-07T01:25:57;3.20;;;3.00;;
4808;SDS011;2418;49.930;8.606;2023-05-07T01:28:23;4.25;;;3.28;;
4808;SDS011;2418;49.930;8.606;2023-05-07T01:30:53;2.90;;;2.70;;
4808;SDS011;2418;49.930;8.606;2023-05-07T01:33:20;2.83;;;2.63;;
4808;SDS011;2418;49.930;8.606;2023-05-07T01:35:48;2.88;;;2.78;;
4808;SDS011;2418;49.930;8.606;2023-05-07T01:38:15;3.42;;;3.20;;
4808;SDS011;2418;49.930;8.606;2023-05-07T01:40:42;7.40;;;3.00;;
4808;SDS011;2418;49.930;8.606;2023-05-07T01:43:07;3.60;;;2.83;;
4808;SDS011;2418;49.930;8.606;2023-05-07T01:45:34;2.97;;;2.88;;
4808;SDS011;2418;49.930;8.606;2023-05-07T01:48:01;3.30;;;3.20;;
4808;SDS011;2418;49.930;8.606;2023-05-07T01:50:27;3.10;;;3.00;;
4808;SDS011;2418;49.930;8.606;2023-05-07T01:52:54;3.20;;;2.90;;
4808;SDS011;2418;49.930;8.606;2023-05-07T01:55:20;3.00;;;2.80;;
4808;SDS011;2418;49.930;8.606;2023-05-07T01:57:46;4.50;;;3.00;;
4808;SDS011;2418;49.930;8.606;2023-05-07T02:00:12;3.33;;;3.13;;
4808;SDS011;2418;49.930;8.606;2023-05-07T02:02:38;3.38;;;3.08;;
4808;SDS011;2418;49.930;8.606;2023-05-07T02:05:04;3.20;;;3.00;;
4808;SDS011;2418;49.930;8.606;2023-05-07T02:07:30;3.10;;;3.00;;
4808;SDS011;2418;49.930;8.606;2023-05-07T02:09:56;2.87;;;2.77;;
4808;SDS011;2418;49.930;8.606;2023-05-07T02:12:22;2.97;;;2.87;;
4808;SDS011;2418;49.930;8.606;2023-05-07T02:14:49;2.85;;;2.75;;
4808;SDS011;2418;49.930;8.606;2023-05-07T02:17:15;2.95;;;2.85;;
4808;SDS011;2418;49.930;8.606;2023-05-07T02:19:41;3.22;;;3.13;;
4808;SDS011;2418;49.930;8.606;2023-05-07T02:22:07;5.40;;;3.10;;
4808;SDS011;2418;49.930;8.606;2023-05-07T02:24:33;6.93;;;3.30;;
4808;SDS011;2418;49.930;8.606;2023-05-07T02:26:59;3.13;;;2.85;;
4808;SDS011;2418;49.930;8.606;2023-05-07T02:29:25;3.20;;;3.00;;
4808;SDS011;2418;49.930;8.606;2023-05-07T02:31:51;5.20;;;3.20;;
4808;SDS011;2418;49.930;8.606;2023-05-07T02:34:18;2.90;;;2.60;;
4808;SDS011;2418;49.930;8.606;2023-05-07T02:36:44;3.00;;;2.90;;
4808;SDS011;2418;49.930;8.606;2023-05-07T02:39:10;5.03;;;3.03;;
4808;SDS011;2418;49.930;8.606;2023-05-07T02:41:37;3.22;;;3.05;;
4808;SDS011;2418;49.930;8.606;2023-05-07T02:44:03;2.90;;;2.80;;
4808;SDS011;2418;49.930;8.606;2023-05-07T02:46:29;4.00;;;3.40;;
4808;SDS011;2418;49.930;8.606;2023-05-07T02:48:55;3.10;;;3.00;;
4808;SDS011;2418;49.930;8.606;2023-05-07T02:51:22;3.27;;;3.17;;
4808;SDS011;2418;49.930;8.606;2023-05-07T02:53:48;3.35;;;3.25;;
4808;SDS011;2418;49.930;8.606;2023-05-07T02:56:14;5.82;;;3.47;;
4808;SDS011;2418;49.930;8.606;2023-05-07T02:58:40;3.35;;;3.15;;
4808;SDS011;2418;49.930;8.606;2023-05-07T03:01:09;4.47;;;3.50;;
4808;SDS011;2418;49.930;8.606;2023-05-07T03:03:35;3.83;;;3.27;;
4808;SDS011;2418;49.930;8.606;2023-05-07T03:06:01;3.55;;;3.30;;
4808;SDS011;2418;49.930;8.606;2023-05-07T03:08:27;4.10;;;3.70;;
4808;SDS011;2418;49.930;8.606;2023-05-07T03:10:53;3.60;;;3.40;;
4808;SDS011;2418;49.930;8.606;2023-05-07T03:13:19;4.10;;;3.90;;
4808;SDS011;2418;49.930;8.606;2023-05-07T03:15:45;3.80;;;3.50;;
4808;SDS011;2418;49.930;8.606;2023-05-07T03:18:11;4.10;;;3.80;;
4808;SDS011;2418;49.930;8.606;2023-05-07T03:20:37;3.90;;;3.60;;
4808;SDS011;2418;49.930;8.606;2023-05-07T03:23:03;8.47;;;3.87;;
4808;SDS011;2418;49.930;8.606;2023-05-07T03:25:29;6.50;;;4.22;;
4808;SDS011;2418;49.930;8.606;2023-05-07T03:27:55;4.75;;;3.75;;
4808;SDS011;2418;49.930;8.606;2023-05-07T03:30:21;3.90;;;3.70;;
4808;SDS011;2418;49.930;8.606;2023-05-07T03:32:47;4.20;;;3.80;;
4808;SDS011;2418;49.930;8.606;2023-05-07T03:35:13;4.70;;;3.90;;
4808;SDS011;2418;49.930;8.606;2023-05-07T03:37:39;4.20;;;4.00;;
4808;SDS011;2418;49.930;8.606;2023-05-07T03:40:05;3.75;;;3.45;;
4808;SDS011;2418;49.930;8.606;2023-05-07T03:42:31;6.40;;;3.10;;
4808;SDS011;2418;49.930;8.606;2023-05-07T03:44:57;3.10;;;3.00;;
4808;SDS011;2418;49.930;8.606;2023-05-07T03:47:23;3.63;;;3.33;;
4808;SDS011;2418;49.930;8.606;2023-05-07T03:49:49;3.20;;;3.00;;
4808;SDS011;2418;49.930;8.606;2023-05-07T03:52:17;3.80;;;3.50;;
4808;SDS011;2418;49.930;8.606;2023-05-07T03:54:48;3.70;;;3.50;;
4808;SDS011;2418;49.930;8.606;2023-05-07T03:57:15;3.45;;;3.35;;
4808;SDS011;2418;49.930;8.606;2023-05-07T03:59:41;3.83;;;3.63;;
4808;SDS011;2418;49.930;8.606;2023-05-07T04:02:07;3.40;;;3.20;;
4808;SDS011;2418;49.930;8.606;2023-05-07T04:04:32;3.50;;;3.20;;
4808;SDS011;2418;49.930;8.606;2023-05-07T04:06:58;3.90;;;2.90;;
4808;SDS011;2418;49.930;8.606;2023-05-07T04:09:25;3.40;;;3.20;;
4808;SDS011;2418;49.930;8.606;2023-05-07T04:11:51;3.83;;;3.63;;
4808;SDS011;2418;49.930;8.606;2023-05-07T04:14:17;4.50;;;3.37;;
4808;SDS011;2418;49.930;8.606;2023-05-07T04:16:43;3.60;;;2.95;;
4808;SDS011;2418;49.930;8.606;2023-05-07T04:19:09;3.17;;;3.08;;
4808;SDS011;2418;49.930;8.606;2023-05-07T04:21:35;2.95;;;2.85;;
4808;SDS011;2418;49.930;8.606;2023-05-07T04:24:02;4.18;;;3.45;;
4808;SDS011;2418;49.930;8.606;2023-05-07T04:26:28;7.75;;;3.80;;
4808;SDS011;2418;49.930;8.606;2023-05-07T04:28:55;3.28;;;2.97;;
4808;SDS011;2418;49.930;8.606;2023-05-07T04:31:22;3.10;;;3.00;;
4808;SDS011;2418;49.930;8.606;2023-05-07T04:33:48;3.30;;;3.20;;
4808;SDS011;2418;49.930;8.606;2023-05-07T04:36:15;3.53;;;3.33;;
4808;SDS011;2418;49.930;8.606;2023-05-07T04:38:41;3.33;;;3.10;;
4808;SDS011;2418;49.930;8.606;2023-05-07T04:41:08;2.78;;;2.58;;
4808;SDS011;2418;49.930;8.606;2023-05-07T04:43:34;2.38;;;2.38;;
4808;SDS011;2418;49.930;8.606;2023-05-07T04:46:00;4.45;;;2.80;;
4808;SDS011;2418;49.930;8.606;2023-05-07T04:48:26;2.80;;;2.60;;
4808;SDS011;2418;49.930;8.606;2023-05-07T04:50:53;2.95;;;2.70;;
4808;SDS011;2418;49.930;8.606;2023-05-07T04:53:19;2.97;;;2.83;;
4808;SDS011;2418;49.930;8.606;2023-05-07T04:55:45;4.50;;;2.80;;
4808;SDS011;2418;49.930;8.606;2023-05-07T04:58:11;3.20;;;3.00;;
4808;SDS011;2418;49.930;8.606;2023-05-07T05:00:37;2.50;;;2.40;;
4808;SDS011;2418;49.930;8.606;2023-05-07T05:03:07;2.30;;;2.22;;
4808;SDS011;2418;49.930;8.606;2023-05-07T05:05:33;2.60;;;2.40;;
4808;SDS011;2418;49.930;8.606;2023-05-07T05:07:59;2.65;;;2.55;;
4808;SDS011;2418;49.930;8.606;2023-05-07T05:10:25;5.30;;;2.55;;
4808;SDS011;2418;49.930;8.606;2023-05-07T05:12:51;2.90;;;2.80;;
4808;SDS011;2418;49.930;8.606;2023-05-07T05:15:17;2.30;;;1.92;;
4808;SDS011;2418;49.930;8.606;2023-05-07T05:17:43;2.70;;;2.60;;
4808;SDS011;2418;49.930;8.606;2023-05-07T05:20:09;2.70;;;2.50;;
4808;SDS011;2418;49.930;8.606;2023-05-07T05:22:36;2.60;;;2.50;;
4808;SDS011;2418;49.930;8.606;2023-05-07T05:25:02;2.50;;;2.40;;
4808;SDS011;2418;49.930;8.606;2023-05-07T05:27:28;2.78;;;2.67;;
4808;SDS011;2418;49.930;8.606;2023-05-07T05:29:55;4.25;;;2.92;;
4808;SDS011;2418;49.930;8.606;2023-05-07T05:32:21;2.60;;;2.50;;
4808;SDS011;2418;49.930;8.606;2023-05-07T05:34:47;2.55;;;2.45;;
4808;SDS011;2418;49.930;8.606;2023-05-07T05:37:13;3.10;;;2.80;;
4808;SDS011;2418;49.930;8.606;2023-05-07T05:39:39;3.20;;;2.90;;
4808;SDS011;2418;49.930;8.606;2023-05-07T05:42:06;3.25;;;3.00;;
4808;SDS011;2418;49.930;8.606;2023-05-07T05:44:32;4.15;;;3.10;;
4808;SDS011;2418;49.930;8.606;2023-05-07T05:46:58;3.45;;;3.00;;
4808;SDS011;2418;49.930;8.606;2023-05-07T05:49:24;3.00;;;2.90;;
4808;SDS011;2418;49.930;8.606;2023-05-07T05:51:50;3.17;;;2.97;;
4808;SDS011;2418;49.930;8.606;2023-05-07T05:54:16;3.00;;;2.80;;
4808;SDS011;2418;49.930;8.606;2023-05-07T05:56:42;2.70;;;2.70;;
4808;SDS011;2418;49.930;8.606;2023-05-07T05:59:09;2.72;;;2.63;;
4808;SDS011;2418;49.930;8.606;2023-05-07T06:01:35;3.00;;;2.90;;
4808;SDS011;2418;49.930;8.606;2023-05-07T06:04:01;2.30;;;2.20;;
4808;SDS011;2418;49.930;8.606;2023-05-07T06:06:27;3.03;;;2.83;;
4808;SDS011;2418;49.930;8.606;2023-05-07T06:08:53;2.95;;;2.75;;
4808;SDS011;2418;49.930;8.606;2023-05-07T06:11:19;5.47;;;3.00;;
4808;SDS011;2418;49.930;8.606;2023-05-07T06:13:45;2.43;;;2.33;;
4808;SDS011;2418;49.930;8.606;2023-05-07T06:16:11;4.00;;;2.80;;
4808;SDS011;2418;49.930;8.606;2023-05-07T06:18:37;2.95;;;2.80;;
4808;SDS011;2418;49.930;8.606;2023-05-07T06:21:03;2.63;;;2.53;;
4808;SDS011;2418;49.930;8.606;2023-05-07T06:23:29;2.60;;;2.50;;
4808;SDS011;2418;49.930;8.606;2023-05-07T06:25:55;2.47;;;2.45;;
4808;SDS011;2418;49.930;8.606;2023-05-07T06:28:21;2.50;;;2.40;;
4808;SDS011;2418;49.930;8.606;2023-05-07T06:30:47;2.38;;;2.38;;
4808;SDS011;2418;49.930;8.606;2023-05-07T06:33:15;2.60;;;2.50;;
4808;SDS011;2418;49.930;8.606;2023-05-07T06:35:42;2.70;;;2.50;;
4808;SDS011;2418;49.930;8.606;2023-05-07T06:38:08;2.50;;;2.30;;
4808;SDS011;2418;49.930;8.606;2023-05-07T06:40:34;3.70;;;2.28;;
4808;SDS011;2418;49.930;8.606;2023-05-07T06:43:00;2.47;;;2.40;;
4808;SDS011;2418;49.930;8.606;2023-05-07T06:45:26;2.93;;;2.73;;
4808;SDS011;2418;49.930;8.606;2023-05-07T06:47:52;2.70;;;2.40;;
4808;SDS011;2418;49.930;8.606;2023-05-07T06:50:18;2.50;;;2.50;;
4808;SDS011;2418;49.930;8.606;2023-05-07T06:52:44;3.70;;;2.45;;
4808;SDS011;2418;49.930;8.606;2023-05-07T06:55:09;3.67;;;2.50;;
4808;SDS011;2418;49.930;8.606;2023-05-07T06:57:36;2.70;;;2.50;;
4808;SDS011;2418;49.930;8.606;2023-05-07T07:00:02;3.00;;;2.50;;
4808;SDS011;2418;49.930;8.606;2023-05-07T07:02:29;2.55;;;2.55;;
4808;SDS011;2418;49.930;8.606;2023-05-07T07:04:55;2.60;;;2.50;;
4808;SDS011;2418;49.930;8.606;2023-05-07T07:07:21;2.60;;;2.40;;
4808;SDS011;2418;49.930;8.606;2023-05-07T07:09:47;2.33;;;2.22;;
4808;SDS011;2418;49.930;8.606;2023-05-07T07:12:13;2.50;;;2.40;;
4808;SDS011;2418;49.930;8.606;2023-05-07T07:14:39;3.00;;;2.70;;
4808;SDS011;2418;49.930;8.606;2023-05-07T07:17:05;3.00;;;2.80;;
4808;SDS011;2418;49.930;8.606;2023-05-07T07:19:31;2.90;;;2.70;;
4808;SDS011;2418;49.930;8.606;2023-05-07T07:21:57;2.75;;;2.55;;
4808;SDS011;2418;49.930;8.606;2023-05-07T07:24:23;3.10;;;2.80;;
4808;SDS011;2418;49.930;8.606;2023-05-07T07:26:49;2.50;;;2.50;;
4808;SDS011;2418;49.930;8.606;2023-05-07T07:29:15;2.47;;;2.45;;
4808;SDS011;2418;49.930;8.606;2023-05-07T07:31:41;3.00;;;2.80;;
4808;SDS011;2418;49.930;8.606;2023-05-07T07:34:07;3.00;;;2.90;;
4808;SDS011;2418;49.930;8.606;2023-05-07T07:36:33;5.30;;;2.50;;
4808;SDS011;2418;49.930;8.606;2023-05-07T07:38:59;2.25;;;2.20;;
4808;SDS011;2418;49.930;8.606;2023-05-07T07:41:25;3.00;;;2.80;;
4808;SDS011;2418;49.930;8.606;2023-05-07T07:43:51;2.70;;;2.60;;
4808;SDS011;2418;49.930;8.606;2023-05-07T07:46:17;5.80;;;2.70;;
4808;SDS011;2418;49.930;8.606;2023-05-07T07:48:43;3.00;;;2.90;;
4808;SDS011;2418;49.930;8.606;2023-05-07T07:51:09;3.20;;;3.00;;
4808;SDS011;2418;49.930;8.606;2023-05-07T07:53:35;3.00;;;2.90;;
4808;SDS011;2418;49.930;8.606;2023-05-07T07:56:01;2.83;;;2.83;;
4808;SDS011;2418;49.930;8.606;2023-05-07T07:58:27;3.00;;;2.75;;
4808;SDS011;2418;49.930;8.606;2023-05-07T08:00:52;3.00;;;2.90;;
4808;SDS011;2418;49.930;8.606;2023-05-07T08:03:20;3.00;;;2.90;;
4808;SDS011;2418;49.930;8.606;2023-05-07T08:05:46;3.50;;;3.30;;
4808;SDS011;2418;49.930;8.606;2023-05-07T08:08:14;3.20;;;3.10;;
4808;SDS011;2418;49.930;8.606;2023-05-07T08:10:40;3.58;;;3.35;;
4808;SDS011;2418;49.930;8.606;2023-05-07T08:13:06;3.45;;;3.03;;
4808;SDS011;2418;49.930;8.606;2023-05-07T08:15:32;3.20;;;3.10;;
4808;SDS011;2418;49.930;8.606;2023-05-07T08:17:58;5.43;;;3.30;;
4808;SDS011;2418;49.930;8.606;2023-05-07T08:20:28;3.38;;;3.28;;
4808;SDS011;2418;49.930;8.606;2023-05-07T08:22:54;4.32;;;2.95;;
4808;SDS011;2418;49.930;8.606;2023-05-07T08:25:20;3.03;;;2.92;;
4808;SDS011;2418;49.930;8.606;2023-05-07T08:27:46;3.38;;;3.28;;
4808;SDS011;2418;49.930;8.606;2023-05-07T08:30:12;3.30;;;3.20;;
4808;SDS011;2418;49.930;8.606;2023-05-07T08:32:38;4.10;;;3.53;;
4808;SDS011;2418;49.930;8.606;2023-05-07T08:35:04;3.60;;;3.30;;
4808;SDS011;2418;49.930;8.606;2023-05-07T08:37:30;4.03;;;3.72;;
4808;SDS011;2418;49.930;8.606;2023-05-07T08:39:57;3.55;;;3.22;;
4808;SDS011;2418;49.930;8.606;2023-05-07T08:42:25;3.40;;;3.10;;
4808;SDS011;2418;49.930;8.606;2023-05-07T08:44:52;3.05;;;2.95;;
4808;SDS011;2418;49.930;8.606;2023-05-07T08:47:22;3.60;;;3.50;;
4808;SDS011;2418;49.930;8.606;2023-05-07T08:49:56;3.92;;;3.53;;
4808;SDS011;2418;49.930;8.606;2023-05-07T08:52:22;3.40;;;3.30;;
4808;SDS011;2418;49.930;8.606;2023-05-07T08:54:50;3.77;;;3.47;;
4808;SDS011;2418;49.930;8.606;2023-05-07T08:57:16;3.40;;;3.30;;
4808;SDS011;2418;49.930;8.606;2023-05-07T08:59:41;3.47;;;3.28;;
4808;SDS011;2418;49.930;8.606;2023-05-07T09:02:07;3.60;;;3.30;;
4808;SDS011;2418;49.930;8.606;2023-05-07T09:04:35;3.73;;;3.63;;
4808;SDS011;2418;49.930;8.606;2023-05-07T09:07:01;3.30;;;3.20;;
4808;SDS011;2418;49.930;8.606;2023-05-07T09:09:31;3.60;;;3.45;;
4808;SDS011;2418;49.930;8.606;2023-05-07T09:11:57;3.75;;;3.55;;
4808;SDS011;2418;49.930;8.606;2023-05-07T09:14:24;3.40;;;3.20;;
4808;SDS011;2418;49.930;8.606;2023-05-07T09:16:52;2.92;;;2.85;;
4808;SDS011;2418;49.930;8.606;2023-05-07T09:19:21;3.03;;;2.83;;
4808;SDS011;2418;49.930;8.606;2023-05-07T09:21:48;3.40;;;3.10;;
4808;SDS011;2418;49.930;8.606;2023-05-07T09:24:17;2.90;;;2.80;;
4808;SDS011;2418;49.930;8.606;2023-05-07T09:26:43;3.40;;;3.30;;
4808;SDS011;2418;49.930;8.606;2023-05-07T09:29:09;5.32;;;3.50;;
4808;SDS011;2418;49.930;8.606;2023-05-07T09:31:36;3.65;;;3.45;;
4808;SDS011;2418;49.930;8.606;2023-05-07T09:34:04;3.90;;;3.53;;
4808;SDS011;2418;49.930;8.606;2023-05-07T09:36:31;3.53;;;3.30;;
4808;SDS011;2418;49.930;8.606;2023-05-07T09:39:01;3.35;;;3.15;;
4808;SDS011;2418;49.930;8.606;2023-05-07T09:41:27;3.83;;;3.63;;
4808;SDS011;2418;49.930;8.606;2023-05-07T09:43:56;5.70;;;3.80;;
4808;SDS011;2418;49.930;8.606;2023-05-07T09:46:32;4.20;;;3.45;;
4808;SDS011;2418;49.930;8.606;2023-05-07T09:48:59;4.60;;;3.30;;
4808;SDS011;2418;49.930;8.606;2023-05-07T09:51:33;3.40;;;3.30;;
4808;SDS011;2418;49.930;8.606;2023-05-07T09:54:00;4.45;;;3.40;;
4808;SDS011;2418;49.930;8.606;2023-05-07T09:56:29;3.10;;;3.00;;
4808;SDS011;2418;49.930;8.606;2023-05-07T09:58:56;3.58;;;3.47;;
4808;SDS011;2418;49.930;8.606;2023-05-07T10:01:23;3.40;;;3.20;;
4808;SDS011;2418;49.930;8.606;2023-05-07T10:03:49;3.27;;;3.17;;
4808;SDS011;2418;49.930;8.606;2023-05-07T10:06:18;3.15;;;2.85;;
4808;SDS011;2418;49.930;8.606;2023-05-07T10:08:45;2.90;;;2.90;;
4808;SDS011;2418;49.930;8.606;2023-05-07T10:11:12;3.20;;;3.10;;
4808;SDS011;2418;49.930;8.606;2023-05-07T10:13:39;3.60;;;3.38;;
4808;SDS011;2418;49.930;8.606;2023-05-07T10:16:06;3.30;;;3.20;;
4808;SDS011;2418;49.930;8.606;2023-05-07T10:18:33;3.00;;;2.90;;
4808;SDS011;2418;49.930;8.606;2023-05-07T10:21:02;3.20;;;3.10;;
4808;SDS011;2418;49.930;8.606;2023-05-07T10:23:28;3.20;;;3.10;;
4808;SDS011;2418;49.930;8.606;2023-05-07T10:25:54;3.15;;;3.05;;
4808;SDS011;2418;49.930;8.606;2023-05-07T10:28:21;3.50;;;3.40;;
4808;SDS011;2418;49.930;8.606;2023-05-07T10:33:19;4.32;;;3.00;;
4808;SDS011;2418;49.930;8.606;2023-05-07T10:35:47;9.40;;;3.30;;
4808;SDS011;2418;49.930;8.606;2023-05-07T10:38:14;5.30;;;3.50;;
4808;SDS011;2418;49.930;8.606;2023-05-07T10:40:40;4.00;;;2.95;;
4808;SDS011;2418;49.930;8.606;2023-05-07T10:43:06;2.67;;;2.58;;
4808;SDS011;2418;49.930;8.606;2023-05-07T10:45:32;3.28;;;3.17;;
4808;SDS011;2418;49.930;8.606;2023-05-07T10:48:08;2.70;;;2.63;;
4808;SDS011;2418;49.930;8.606;2023-05-07T10:50:36;3.50;;;3.20;;
4808;SDS011;2418;49.930;8.606;2023-05-07T10:55:48;3.30;;;3.00;;
4808;SDS011;2418;49.930;8.606;2023-05-07T11:00:47;4.95;;;3.00;;
4808;SDS011;2418;49.930;8.606;2023-05-07T11:03:13;3.00;;;2.90;;
4808;SDS011;2418;49.930;8.606;2023-05-07T11:05:40;2.60;;;2.50;;
4808;SDS011;2418;49.930;8.606;2023-05-07T11:08:06;3.00;;;2.90;;
4808;SDS011;2418;49.930;8.606;2023-05-07T11:10:48;3.00;;;2.90;;
4808;SDS011;2418;49.930;8.606;2023-05-07T11:13:14;2.60;;;2.50;;
4808;SDS011;2418;49.930;8.606;2023-05-07T11:15:44;3.05;;;2.95;;
4808;SDS011;2418;49.930;8.606;2023-05-07T11:18:12;3.40;;;2.60;;
4808;SDS011;2418;49.930;8.606;2023-05-07T11:20:44;2.80;;;2.70;;
4808;SDS011;2418;49.930;8.606;2023-05-07T11:26:04;2.70;;;2.60;;
4808;SDS011;2418;49.930;8.606;2023-05-07T11:28:30;2.75;;;2.65;;
4808;SDS011;2418;49.930;8.606;2023-05-07T11:30:57;2.43;;;2.33;;
4808;SDS011;2418;49.930;8.606;2023-05-07T11:33:24;3.40;;;3.10;;
4808;SDS011;2418;49.930;8.606;2023-05-07T11:35:50;2.10;;;1.97;;
4808;SDS011;2418;49.930;8.606;2023-05-07T11:38:18;2.30;;;2.20;;
4808;SDS011;2418;49.930;8.606;2023-05-07T11:40:50;2.45;;;2.35;;
4808;SDS011;2418;49.930;8.606;2023-05-07T11:43:16;2.60;;;2.40;;
4808;SDS011;2418;49.930;8.606;2023-05-07T11:45:42;2.20;;;2.20;;
4808;SDS011;2418;49.930;8.606;2023-05-07T11:48:09;4.10;;;2.40;;
4808;SDS011;2418;49.930;8.606;2023-05-07T11:50:34;2.20;;;2.10;;
4808;SDS011;2418;49.930;8.606;2023-05-07T11:53:00;2.60;;;2.00;;
4808;SDS011;2418;49.930;8.606;2023-05-07T11:55:32;1.90;;;1.90;;
4808;SDS011;2418;49.930;8.606;2023-05-07T11:57:58;2.20;;;2.10;;
4808;SDS011;2418;49.930;8.606;2023-05-07T12:00:26;4.40;;;2.55;;
4808;SDS011;2418;49.930;8.606;2023-05-07T12:02:52;2.50;;;2.40;;
4808;SDS011;2418;49.930;8.606;2023-05-07T12:05:18;2.17;;;2.08;;
4808;SDS011;2418;49.930;8.606;2023-05-07T12:07:43;2.42;;;2.22;;
4808;SDS011;2418;49.930;8.606;2023-05-07T12:10:10;2.20;;;2.10;;
4808;SDS011;2418;49.930;8.606;2023-05-07T12:12:40;5.90;;;3.00;;
4808;SDS011;2418;49.930;8.606;2023-05-07T12:15:09;2.42;;;2.10;;
4808;SDS011;2418;49.930;8.606;2023-05-07T12:17:35;2.50;;;2.40;;
4808;SDS011;2418;49.930;8.606;2023-05-07T12:20:01;2.20;;;2.00;;
4808;SDS011;2418;49.930;8.606;2023-05-07T12:22:28;3.35;;;3.13;;
4808;SDS011;2418;49.930;8.606;2023-05-07T12:24:57;4.10;;;3.38;;
4808;SDS011;2418;49.930;8.606;2023-05-07T12:27:25;1.90;;;1.80;;
4808;SDS011;2418;49.930;8.606;2023-05-07T12:29:50;2.00;;;1.90;;
4808;SDS011;2418;49.930;8.606;2023-05-07T12:32:17;1.50;;;1.50;;
4808;SDS011;2418;49.930;8.606;2023-05-07T12:34:43;2.28;;;1.83;;
4808;SDS011;2418;49.930;8.606;2023-05-07T12:37:09;1.73;;;1.73;;
4808;SDS011;2418;49.930;8.606;2023-05-07T12:39:35;3.20;;;2.00;;
4808;SDS011;2418;49.930;8.606;2023-05-07T12:42:01;2.20;;;2.10;;
4808;SDS011;2418;49.930;8.606;2023-05-07T12:44:31;2.15;;;2.05;;
4808;SDS011;2418;49.930;8.606;2023-05-07T12:46:58;2.00;;;1.80;;
4808;SDS011;2418;49.930;8.606;2023-05-07T12:49:25;2.00;;;1.90;;
4808;SDS011;2418;49.930;8.606;2023-05-07T12:51:51;2.05;;;1.90;;
4808;SDS011;2418;49.930;8.606;2023-05-07T12:54:34;1.60;;;1.50;;
4808;SDS011;2418;49.930;8.606;2023-05-07T12:57:07;2.30;;;2.20;;
4808;SDS011;2418;49.930;8.606;2023-05-07T12:59:37;1.30;;;1.30;;
4808;SDS011;2418;49.930;8.606;2023-05-07T13:02:03;1.70;;;1.70;;
4808;SDS011;2418;49.930;8.606;2023-05-07T13:04:30;2.70;;;1.70;;
4808;SDS011;2418;49.930;8.606;2023-05-07T13:06:56;2.50;;;1.40;;
4808;SDS011;2418;49.930;8.606;2023-05-07T13:09:22;1.50;;;1.50;;
4808;SDS011;2418;49.930;8.606;2023-05-07T13:11:48;1.42;;;1.42;;
4808;SDS011;2418;49.930;8.606;2023-05-07T13:14:14;2.20;;;1.85;;
4808;SDS011;2418;49.930;8.606;2023-05-07T13:16:40;3.45;;;2.40;;
4808;SDS011;2418;49.930;8.606;2023-05-07T13:19:06;2.20;;;2.10;;
4808;SDS011;2418;49.930;8.606;2023-05-07T13:21:32;7.32;;;3.67;;
4808;SDS011;2418;49.930;8.606;2023-05-07T13:24:00;5.85;;;2.35;;
4808;SDS011;2418;49.930;8.606;2023-05-07T13:26:26;1.60;;;1.40;;
4808;SDS011;2418;49.930;8.606;2023-05-07T13:28:53;2.50;;;1.70;;
4808;SDS011;2418;49.930;8.606;2023-05-07T13:31:22;3.70;;;2.30;;
4808;SDS011;2418;49.930;8.606;2023-05-07T13:33:48;3.35;;;3.15;;
4808;SDS011;2418;49.930;8.606;2023-05-07T13:36:14;4.53;;;1.90;;
4808;SDS011;2418;49.930;8.606;2023-05-07T13:38:40;1.60;;;1.50;;
4808;SDS011;2418;49.930;8.606;2023-05-07T13:41:06;2.70;;;2.50;;
4808;SDS011;2418;49.930;8.606;2023-05-07T13:43:33;2.50;;;2.30;;
4808;SDS011;2418;49.930;8.606;2023-05-07T13:45:59;3.10;;;3.00;;
4808;SDS011;2418;49.930;8.606;2023-05-07T13:48:25;3.92;;;1.90;;
4808;SDS011;2418;49.930;8.606;2023-05-07T13:50:51;1.52;;;1.52;;
4808;SDS011;2418;49.930;8.606;2023-05-07T13:53:17;1.88;;;1.77;;
4808;SDS011;2418;49.930;8.606;2023-05-07T13:55:44;1.48;;;1.48;;
4808;SDS011;2418;49.930;8.606;2023-05-07T13:58:10;1.77;;;1.77;;
4808;SDS011;2418;49.930;8.606;2023-05-07T14:00:36;1.70;;;1.70;;
4808;SDS011;2418;49.930;8.606;2023-05-07T14:03:02;1.73;;;1.73;;
4808;SDS011;2418;49.930;8.606;2023-05-07T14:05:28;1.60;;;1.50;;
4808;SDS011;2418;49.930;8.606;2023-05-07T14:07:55;1.70;;;1.70;;
4808;SDS011;2418;49.930;8.606;2023-05-07T14:10:22;1.60;;;1.50;;
4808;SDS011;2418;49.930;8.606;2023-05-07T14:12:48;1.90;;;1.85;;
4808;SDS011;2418;49.930;8.606;2023-05-07T14:15:14;3.50;;;1.40;;
4808;SDS011;2418;49.930;8.606;2023-05-07T14:20:16;1.50;;;1.40;;
4808;SDS011;2418;49.930;8.606;2023-05-07T14:22:42;1.50;;;1.30;;
4808;SDS011;2418;49.930;8.606;2023-05-07T14:25:08;1.00;;;1.00;;
4808;SDS011;2418;49.930;8.606;2023-05-07T14:27:34;0.90;;;0.90;;
4808;SDS011;2418;49.930;8.606;2023-05-07T14:30:00;1.20;;;1.20;;
4808;SDS011;2418;49.930;8.606;2023-05-07T14:32:26;1.00;;;1.00;;
4808;SDS011;2418;49.930;8.606;2023-05-07T14:34:52;1.50;;;1.50;;
4808;SDS011;2418;49.930;8.606;2023-05-07T14:37:19;1.27;;;1.27;;
4808;SDS011;2418;49.930;8.606;2023-05-07T14:39:45;1.50;;;1.40;;
4808;SDS011;2418;49.930;8.606;2023-05-07T14:42:11;1.50;;;1.40;;
4808;SDS011;2418;49.930;8.606;2023-05-07T14:44:37;2.38;;;1.50;;
4808;SDS011;2418;49.930;8.606;2023-05-07T14:47:05;5.17;;;4.77;;
4808;SDS011;2418;49.930;8.606;2023-05-07T14:49:31;5.68;;;5.28;;
4808;SDS011;2418;49.930;8.606;2023-05-07T14:51:57;7.93;;;5.50;;
4808;SDS011;2418;49.930;8.606;2023-05-07T14:54:27;6.95;;;6.35;;
4808;SDS011;2418;49.930;8.606;2023-05-07T14:56:53;2.10;;;2.00;;
4808;SDS011;2418;49.930;8.606;2023-05-07T14:59:19;1.90;;;1.70;;
4808;SDS011;2418;49.930;8.606;2023-05-07T15:01:46;1.45;;;1.45;;
4808;SDS011;2418;49.930;8.606;2023-05-07T15:04:12;4.17;;;1.53;;
4808;SDS011;2418;49.930;8.606;2023-05-07T15:06:41;2.70;;;1.40;;
4808;SDS011;2418;49.930;8.606;2023-05-07T15:09:07;2.00;;;1.60;;
4808;SDS011;2418;49.930;8.606;2023-05-07T15:11:34;1.20;;;1.20;;
4808;SDS011;2418;49.930;8.606;2023-05-07T15:14:00;1.30;;;1.30;;
4808;SDS011;2418;49.930;8.606;2023-05-07T15:16:26;4.85;;;1.50;;
4808;SDS011;2418;49.930;8.606;2023-05-07T15:18:51;1.50;;;1.40;;
4808;SDS011;2418;49.930;8.606;2023-05-07T15:21:17;2.38;;;1.58;;
4808;SDS011;2418;49.930;8.606;2023-05-07T15:23:43;1.80;;;1.33;;